Red River Army Depot, Texas
Current Conditions -  °F | °C
As of 11:53 PM on Wednesday 28 Jan 2015 (Local Time) from KTXK Reporting Station
Clear Clear  
Wind Chill: 60°   Ceiling: Unl
Heat Index: 60°   Visibility: 10mi
Dew Point: 44°   Wind: 12mph
Humidity: 55%   Direction: 210°SSW
Pressure: 30.06"   Gusts: NA
Location:  33.3633°N, 94.2141°W
Report Text: KTXK 290553Z AUTO 21010KT 10SM CLR 16/07 A3006 RMK AO2 SLP178 T01560067 10211 20156 402500050 53008
Loading
Personal Weather Stations






























Interactive Weather Map New forecast layout! Learn more

10-Day Weather Forecast

Advertisements
Track Severe Weather on mobile